createdAt,value
2023-05-10T00:00:20.082Z,7.25
2023-05-10T00:02:48.252Z,7.65
2023-05-10T00:05:18.982Z,5.97
2023-05-10T00:07:46.835Z,8.50
2023-05-10T00:10:14.797Z,6.78
2023-05-10T00:12:42.975Z,6.18
2023-05-10T00:15:11.330Z,7.78
2023-05-10T00:17:39.221Z,7.80
2023-05-10T00:20:08.062Z,6.38
2023-05-10T00:22:37.192Z,6.28
2023-05-10T00:25:05.778Z,7.07
2023-05-10T00:27:33.637Z,5.88
2023-05-10T00:30:01.683Z,8.93
2023-05-10T00:32:29.580Z,7.75
2023-05-10T00:34:57.511Z,7.53
2023-05-10T00:37:25.353Z,6.05
2023-05-10T00:39:54.500Z,7.78
2023-05-10T00:42:22.245Z,8.48
2023-05-10T00:44:50.036Z,9.35
2023-05-10T00:47:18.601Z,8.23
2023-05-10T00:49:47.788Z,6.72
2023-05-10T00:52:15.838Z,7.72
2023-05-10T00:54:44.071Z,6.03
2023-05-10T00:57:13.423Z,6.60
2023-05-10T00:59:41.566Z,8.48
2023-05-10T01:02:09.489Z,10.20
2023-05-10T01:04:38.123Z,6.07
2023-05-10T01:07:05.986Z,10.43
2023-05-10T01:09:35.135Z,7.78
2023-05-10T01:12:04.531Z,7.97
2023-05-10T01:14:33.872Z,8.77
2023-05-10T01:17:02.584Z,9.10
2023-05-10T01:19:35.760Z,7.97
2023-05-10T01:22:12.409Z,6.22
2023-05-10T01:25:06.248Z,10.95
2023-05-10T01:28:12.702Z,7.05
2023-05-10T01:31:25.304Z,5.60
2023-05-10T01:34:01.118Z,8.18
2023-05-10T01:36:33.238Z,6.88
2023-05-10T01:39:08.246Z,11.02
2023-05-10T01:41:42.409Z,7.05
2023-05-10T01:44:18.402Z,9.57
2023-05-10T01:46:50.860Z,8.95
2023-05-10T01:49:31.614Z,8.55
2023-05-10T01:52:02.914Z,8.10
2023-05-10T01:54:32.314Z,7.90
2023-05-10T01:57:05.202Z,7.85
2023-05-10T01:59:37.457Z,7.53
2023-05-10T02:02:07.473Z,7.55
2023-05-10T02:04:39.234Z,7.40
2023-05-10T02:07:08.744Z,8.00
2023-05-10T02:09:37.141Z,9.23
2023-05-10T02:12:07.263Z,7.80
2023-05-10T02:14:38.223Z,10.20
2023-05-10T02:17:08.097Z,8.30
2023-05-10T02:19:40.062Z,10.52
2023-05-10T02:22:09.205Z,11.10
2023-05-10T02:24:38.632Z,8.43
2023-05-10T02:27:07.053Z,9.82
2023-05-10T02:29:36.325Z,8.77
2023-05-10T02:32:04.814Z,9.45
2023-05-10T02:34:34.053Z,8.77
2023-05-10T02:37:04.983Z,7.93
2023-05-10T02:39:34.179Z,9.38
2023-05-10T02:42:03.961Z,10.70
2023-05-10T02:44:32.337Z,10.77
2023-05-10T02:47:00.955Z,10.30
2023-05-10T02:49:28.848Z,8.87
2023-05-10T02:52:02.068Z,7.87
2023-05-10T02:54:33.946Z,10.50
2023-05-10T02:57:06.187Z,8.73
2023-05-10T02:59:34.663Z,7.60
2023-05-10T03:02:03.338Z,8.27
2023-05-10T03:04:31.188Z,8.03
2023-05-10T03:06:58.989Z,8.00
2023-05-10T03:09:26.896Z,8.57
2023-05-10T03:12:03.104Z,7.13
2023-05-10T03:14:45.521Z,8.10
2023-05-10T03:17:21.667Z,8.43
2023-05-10T03:19:55.228Z,9.00
2023-05-10T03:22:27.469Z,11.20
2023-05-10T03:24:58.704Z,9.27
2023-05-10T03:27:29.725Z,9.23
2023-05-10T03:29:59.200Z,7.40
2023-05-10T03:32:28.186Z,8.60
2023-05-10T03:34:55.962Z,8.40
2023-05-10T03:37:23.746Z,9.83
2023-05-10T03:39:51.826Z,9.80
2023-05-10T03:42:19.863Z,9.17
2023-05-10T03:44:50.185Z,8.67
2023-05-10T03:47:18.267Z,6.77
2023-05-10T03:49:46.188Z,9.37
2023-05-10T03:52:14.121Z,8.53
2023-05-10T03:54:41.922Z,10.80
2023-05-10T03:57:10.597Z,7.97
2023-05-10T03:59:38.382Z,7.60
2023-05-10T04:02:07.724Z,8.13
2023-05-10T04:04:35.795Z,8.90
2023-05-10T04:07:03.817Z,7.93
2023-05-10T04:09:31.794Z,8.90
2023-05-10T04:12:00.985Z,5.97
2023-05-10T04:14:28.808Z,7.07
2023-05-10T04:16:56.751Z,8.27
2023-05-10T04:19:26.040Z,8.30
2023-05-10T04:21:54.741Z,9.57
2023-05-10T04:24:22.514Z,8.35
2023-05-10T04:26:50.341Z,7.53
2023-05-10T04:29:18.172Z,8.03
2023-05-10T04:31:46.079Z,7.13
2023-05-10T04:34:14.816Z,6.70
2023-05-10T04:36:44.194Z,7.10
2023-05-10T04:39:11.992Z,8.70
2023-05-10T04:41:40.191Z,13.60
2023-05-10T04:44:08.150Z,8.23
2023-05-10T04:46:36.044Z,7.17
2023-05-10T04:49:03.881Z,15.52
2023-05-10T04:51:32.351Z,7.38
2023-05-10T04:54:06.480Z,7.03
2023-05-10T04:56:34.831Z,8.02
2023-05-10T04:59:02.819Z,7.88
2023-05-10T05:01:30.841Z,6.65
2023-05-10T05:03:58.798Z,6.55
2023-05-10T05:06:28.125Z,6.38
2023-05-10T05:08:55.948Z,6.43
2023-05-10T05:11:25.126Z,5.65
2023-05-10T05:13:52.919Z,6.75
2023-05-10T05:16:20.828Z,8.45
2023-05-10T05:18:49.259Z,7.65
2023-05-10T05:21:17.725Z,5.72
2023-05-10T05:23:45.731Z,7.32
2023-05-10T05:26:13.968Z,7.50
2023-05-10T05:28:43.171Z,5.95
2023-05-10T05:31:11.239Z,5.63
2023-05-10T05:33:39.327Z,8.15
2023-05-10T05:36:08.033Z,7.30
2023-05-10T05:38:35.939Z,8.82
2023-05-10T05:41:04.093Z,6.10
2023-05-10T05:43:31.993Z,4.95
2023-05-10T05:46:01.220Z,5.18
2023-05-10T05:48:29.155Z,5.82
2023-05-10T05:50:57.752Z,6.28
2023-05-10T05:53:25.984Z,9.45
2023-05-10T05:55:55.207Z,6.53
2023-05-10T05:58:23.439Z,5.60
2023-05-10T06:00:51.631Z,6.07
2023-05-10T06:03:21.201Z,6.72
2023-05-10T06:05:49.217Z,5.03
2023-05-10T06:08:17.173Z,4.82
2023-05-10T06:10:45.408Z,5.75
2023-05-10T06:13:13.295Z,4.28
2023-05-10T06:15:41.155Z,6.50
2023-05-10T06:18:09.014Z,5.15
2023-05-10T06:20:38.280Z,8.40
2023-05-10T06:23:06.017Z,4.28
2023-05-10T06:25:33.854Z,4.30
2023-05-10T06:28:01.606Z,8.73
2023-05-10T06:30:30.180Z,7.72
2023-05-10T06:32:58.735Z,3.67
2023-05-10T06:35:27.099Z,5.22
2023-05-10T06:37:58.116Z,6.50
2023-05-10T06:40:25.950Z,4.18
2023-05-10T06:42:53.906Z,4.63
2023-05-10T06:45:21.842Z,9.32
2023-05-10T06:47:49.678Z,4.22
2023-05-10T06:50:17.598Z,5.13
2023-05-10T06:52:45.968Z,3.75
2023-05-10T06:55:15.257Z,9.48
2023-05-10T06:57:43.205Z,5.25
2023-05-10T07:00:11.681Z,5.38
2023-05-10T07:02:39.537Z,13.00
2023-05-10T07:05:08.369Z,10.80
2023-05-10T07:07:36.343Z,5.13
2023-05-10T07:10:04.515Z,4.20
2023-05-10T07:12:33.763Z,5.18
2023-05-10T07:15:01.715Z,6.75
2023-05-10T07:17:29.555Z,4.47
2023-05-10T07:19:57.563Z,4.90
2023-05-10T07:22:25.753Z,4.68
2023-05-10T07:24:53.611Z,5.50
2023-05-10T07:27:21.445Z,6.88
2023-05-10T07:29:50.617Z,6.78
2023-05-10T07:32:18.554Z,3.72
2023-05-10T07:34:46.353Z,5.40
2023-05-10T07:37:16.048Z,3.00
2023-05-10T07:39:43.988Z,4.22
2023-05-10T07:42:11.891Z,4.00
2023-05-10T07:44:39.659Z,24.35
2023-05-10T07:47:08.868Z,7.63
2023-05-10T07:49:36.967Z,5.10
2023-05-10T07:52:06.084Z,4.93
2023-05-10T07:54:34.821Z,4.35
2023-05-10T07:57:02.931Z,3.83
2023-05-10T07:59:30.845Z,4.28
2023-05-10T08:01:58.708Z,5.25
2023-05-10T08:04:27.949Z,5.70
2023-05-10T08:06:55.892Z,3.22
2023-05-10T08:09:25.125Z,6.82
2023-05-10T08:11:53.276Z,3.40
2023-05-10T08:14:21.200Z,3.10
2023-05-10T08:16:49.204Z,3.53
2023-05-10T08:19:20.015Z,4.50
2023-05-10T08:21:49.655Z,5.97
2023-05-10T08:24:17.610Z,4.10
2023-05-10T08:26:45.538Z,5.22
2023-05-10T08:29:13.287Z,3.85
2023-05-10T08:31:41.221Z,8.98
2023-05-10T08:34:09.330Z,5.25
2023-05-10T08:36:37.294Z,5.13
2023-05-10T08:39:11.372Z,3.33
2023-05-10T08:41:47.661Z,4.47
2023-05-10T08:44:17.640Z,3.88
2023-05-10T08:46:49.024Z,4.20
2023-05-10T08:49:19.749Z,4.25
2023-05-10T08:51:53.769Z,5.35
2023-05-10T08:54:23.615Z,3.38
2023-05-10T08:56:51.652Z,4.03
2023-05-10T08:59:19.494Z,4.85
2023-05-10T09:01:50.320Z,4.43
2023-05-10T09:04:18.204Z,3.83
2023-05-10T09:06:46.193Z,4.45
2023-05-10T09:09:14.554Z,3.92
2023-05-10T09:11:43.791Z,4.15
2023-05-10T09:14:12.170Z,5.00
2023-05-10T09:16:40.214Z,4.88
2023-05-10T09:19:09.233Z,4.82
2023-05-10T09:21:39.134Z,5.72
2023-05-10T09:24:07.798Z,5.65
2023-05-10T09:26:36.647Z,5.57
2023-05-10T09:29:07.420Z,9.50
2023-05-10T09:31:48.903Z,4.20
2023-05-10T09:34:21.165Z,4.82
2023-05-10T09:36:57.277Z,4.35
2023-05-10T09:39:33.877Z,3.60
2023-05-10T09:42:04.761Z,5.32
2023-05-10T09:44:35.099Z,4.93
2023-05-10T09:47:03.351Z,3.92
2023-05-10T09:49:31.959Z,6.00
2023-05-10T09:52:04.718Z,5.68
2023-05-10T09:54:33.214Z,4.10
2023-05-10T09:57:01.693Z,4.93
2023-05-10T09:59:30.525Z,4.82
2023-05-10T10:02:01.651Z,4.38
2023-05-10T10:04:30.203Z,3.58
2023-05-10T10:07:02.617Z,4.43
2023-05-10T10:09:31.139Z,5.90
2023-05-10T10:11:59.736Z,3.65
2023-05-10T10:14:28.181Z,3.75
2023-05-10T10:17:07.777Z,4.38
2023-05-10T10:19:38.298Z,4.70
2023-05-10T10:22:06.435Z,6.15
2023-05-10T10:24:34.297Z,3.88
2023-05-10T10:27:09.139Z,3.22
2023-05-10T10:29:41.781Z,4.43
2023-05-10T10:32:21.821Z,6.28
2023-05-10T10:34:51.551Z,3.22
2023-05-10T10:37:19.865Z,5.03
2023-05-10T10:39:50.795Z,6.72
2023-05-10T10:42:51.146Z,3.42
2023-05-10T10:45:21.069Z,3.63
2023-05-10T10:47:49.184Z,4.63
2023-05-10T10:50:18.451Z,6.97
2023-05-10T10:52:46.919Z,4.78
2023-05-10T10:55:19.091Z,3.85
2023-05-10T10:57:49.492Z,3.35
2023-05-10T11:00:26.191Z,7.47
2023-05-10T11:02:56.200Z,3.33
2023-05-10T11:05:39.515Z,4.43
2023-05-10T11:08:13.417Z,5.15
2023-05-10T11:10:42.083Z,3.53
2023-05-10T11:13:11.062Z,4.50
2023-05-10T11:15:40.367Z,3.40
2023-05-10T11:18:21.818Z,3.53
2023-05-10T11:20:54.549Z,6.35
2023-05-10T11:23:22.387Z,3.80
2023-05-10T11:25:51.198Z,3.80
2023-05-10T11:28:19.559Z,4.75
2023-05-10T11:30:47.664Z,4.25
2023-05-10T11:33:20.342Z,4.85
2023-05-10T11:35:48.395Z,2.83
2023-05-10T11:38:17.659Z,5.00
2023-05-10T11:40:45.624Z,3.10
2023-05-10T11:43:14.610Z,2.83
2023-05-10T11:45:44.181Z,4.07
2023-05-10T11:48:12.302Z,5.55
2023-05-10T11:50:40.379Z,7.47
2023-05-10T11:53:08.178Z,3.90
2023-05-10T11:55:37.581Z,4.43
2023-05-10T11:58:05.984Z,4.95
2023-05-10T12:00:34.277Z,3.65
2023-05-10T12:03:03.760Z,3.35
2023-05-10T12:05:35.086Z,4.80
2023-05-10T12:08:15.381Z,2.67
2023-05-10T12:10:44.590Z,3.90
2023-05-10T12:13:16.861Z,3.70
2023-05-10T12:15:45.475Z,4.53
2023-05-10T12:18:14.703Z,4.30
2023-05-10T12:20:43.513Z,3.25
2023-05-10T12:23:12.254Z,4.07
2023-05-10T12:25:41.049Z,5.97
2023-05-10T12:28:11.648Z,3.75
2023-05-10T12:30:40.463Z,5.75
2023-05-10T12:33:13.007Z,3.75
2023-05-10T12:35:48.456Z,2.45
2023-05-10T12:38:27.698Z,4.95
2023-05-10T12:40:55.519Z,2.65
2023-05-10T12:43:24.911Z,3.05
2023-05-10T12:45:52.810Z,3.88
2023-05-10T12:48:20.795Z,6.88
2023-05-10T12:50:48.721Z,4.45
2023-05-10T12:53:17.490Z,5.65
2023-05-10T12:55:45.885Z,4.80
2023-05-10T12:58:17.910Z,4.82
2023-05-10T13:00:47.347Z,5.47
2023-05-10T13:03:15.741Z,4.32
2023-05-10T13:05:43.628Z,3.42
2023-05-10T13:08:11.403Z,19.67
2023-05-10T13:10:39.287Z,5.57
2023-05-10T13:13:08.382Z,4.25
2023-05-10T13:15:36.522Z,7.03
2023-05-10T13:18:05.867Z,8.63
2023-05-10T13:20:33.666Z,5.60
2023-05-10T13:23:01.533Z,2.90
2023-05-10T13:25:29.299Z,4.40
2023-05-10T13:27:57.061Z,4.35
2023-05-10T13:30:26.221Z,3.72
2023-05-10T13:32:54.095Z,5.05
2023-05-10T13:35:23.504Z,6.70
2023-05-10T13:37:51.309Z,3.92
2023-05-10T13:40:19.293Z,3.88
2023-05-10T13:42:47.115Z,7.30
2023-05-10T13:45:15.040Z,4.75
2023-05-10T13:47:43.016Z,5.47
2023-05-10T13:50:11.217Z,3.70
2023-05-10T13:52:40.425Z,4.15
2023-05-10T13:55:08.775Z,4.93
2023-05-10T13:57:36.970Z,3.65
2023-05-10T14:00:05.602Z,3.53
2023-05-10T14:02:33.515Z,5.47
2023-05-10T14:05:01.531Z,3.08
2023-05-10T14:07:29.328Z,4.88
2023-05-10T14:09:58.582Z,6.57
2023-05-10T14:12:26.445Z,3.70
2023-05-10T14:14:54.392Z,8.63
2023-05-10T14:17:23.084Z,4.47
2023-05-10T14:19:51.026Z,4.07
2023-05-10T14:22:19.296Z,5.03
2023-05-10T14:24:48.115Z,3.40
2023-05-10T14:27:17.347Z,4.45
2023-05-10T14:29:45.139Z,7.15
2023-05-10T14:32:13.123Z,12.18
2023-05-10T14:34:41.112Z,4.25
2023-05-10T14:37:08.941Z,3.92
2023-05-10T14:39:36.830Z,3.60
2023-05-10T14:42:04.815Z,3.15
2023-05-10T14:44:33.881Z,4.13
2023-05-10T14:47:01.744Z,3.83
2023-05-10T14:49:30.117Z,4.32
2023-05-10T14:51:57.913Z,4.93
2023-05-10T14:54:25.760Z,3.75
2023-05-10T14:56:53.541Z,4.60
2023-05-10T14:59:22.561Z,5.78
2023-05-10T15:01:52.207Z,3.08
2023-05-10T15:04:20.548Z,6.07
2023-05-10T15:06:48.844Z,5.63
2023-05-10T15:09:17.387Z,6.38
2023-05-10T15:11:45.537Z,5.13
2023-05-10T15:14:13.358Z,2.85
2023-05-10T15:16:41.180Z,5.75
2023-05-10T15:19:10.362Z,3.28
2023-05-10T15:21:39.808Z,5.85
2023-05-10T15:24:07.935Z,4.82
2023-05-10T15:26:35.725Z,3.70
2023-05-10T15:29:03.505Z,3.88
2023-05-10T15:31:31.580Z,3.55
2023-05-10T15:34:00.703Z,2.97
2023-05-10T15:36:30.042Z,2.70
2023-05-10T15:38:57.925Z,7.72
2023-05-10T15:41:26.090Z,4.15
2023-05-10T15:43:53.856Z,7.05
2023-05-10T15:46:21.722Z,6.45
2023-05-10T15:48:49.633Z,5.78
2023-05-10T15:51:17.504Z,5.72
2023-05-10T15:54:00.416Z,5.57
2023-05-10T15:56:33.779Z,6.57
2023-05-10T15:59:01.618Z,6.72
2023-05-10T16:01:30.870Z,4.20
2023-05-10T16:03:59.039Z,5.38
2023-05-10T16:06:27.157Z,6.70
2023-05-10T16:08:56.414Z,5.10
2023-05-10T16:11:24.332Z,8.25
2023-05-10T16:13:52.828Z,4.47
2023-05-10T16:16:20.875Z,5.38
2023-05-10T16:18:48.880Z,5.75
2023-05-10T16:21:16.893Z,5.95
2023-05-10T16:23:46.452Z,5.88
2023-05-10T16:26:15.655Z,8.77
2023-05-10T16:28:43.618Z,4.85
2023-05-10T16:31:11.488Z,7.53
2023-05-10T16:33:41.229Z,6.35
2023-05-10T16:36:09.160Z,6.85
2023-05-10T16:38:37.724Z,6.68
2023-05-10T16:41:08.898Z,6.07
2023-05-10T16:43:38.083Z,6.63
2023-05-10T16:46:11.313Z,6.05
2023-05-10T16:48:39.283Z,6.78
2023-05-10T16:51:23.028Z,6.03
2023-05-10T16:53:50.935Z,5.88
2023-05-10T16:56:18.820Z,7.43
2023-05-10T16:58:49.873Z,8.27
2023-05-10T17:01:17.693Z,6.22
2023-05-10T17:03:45.643Z,6.57
2023-05-10T17:06:13.980Z,6.22
2023-05-10T17:08:42.067Z,8.45
2023-05-10T17:11:10.029Z,8.00
2023-05-10T17:13:38.757Z,4.95
2023-05-10T17:16:08.303Z,6.53
2023-05-10T17:18:36.579Z,6.40
2023-05-10T17:21:04.564Z,5.88
2023-05-10T17:23:32.378Z,6.93
2023-05-10T17:26:01.703Z,5.35
2023-05-10T17:28:29.793Z,6.38
2023-05-10T17:30:58.547Z,8.07
2023-05-10T17:33:27.789Z,7.45
2023-05-10T17:35:56.779Z,5.00
2023-05-10T17:38:24.791Z,13.07
2023-05-10T17:40:52.697Z,13.50
2023-05-10T17:43:21.692Z,11.50
2023-05-10T17:45:50.913Z,10.43
2023-05-10T17:48:18.739Z,15.27
2023-05-10T17:50:47.927Z,9.80
2023-05-10T17:53:15.836Z,7.72
2023-05-10T17:55:43.938Z,6.45
2023-05-10T17:58:12.881Z,6.20
2023-05-10T18:00:41.060Z,8.02
2023-05-10T18:03:09.007Z,8.20
2023-05-10T18:05:38.139Z,10.32
2023-05-10T18:08:07.531Z,10.07
2023-05-10T18:10:35.361Z,8.00
2023-05-10T18:13:06.268Z,6.60
2023-05-10T18:15:36.374Z,7.80
2023-05-10T18:18:05.070Z,10.18
2023-05-10T18:20:33.060Z,8.35
2023-05-10T18:23:00.899Z,6.57
2023-05-10T18:25:30.158Z,6.35
2023-05-10T18:27:58.296Z,7.07
2023-05-10T18:30:26.161Z,7.20
2023-05-10T18:32:54.222Z,7.80
2023-05-10T18:35:22.518Z,7.00
2023-05-10T18:37:50.739Z,7.45
2023-05-10T18:40:19.550Z,7.40
2023-05-10T18:42:50.077Z,7.90
2023-05-10T18:45:18.180Z,8.10
2023-05-10T18:47:46.252Z,10.65
2023-05-10T18:50:14.169Z,9.68
2023-05-10T18:52:42.580Z,8.73
2023-05-10T18:55:10.869Z,7.68
2023-05-10T18:57:41.371Z,7.82
2023-05-10T19:00:12.992Z,11.30
2023-05-10T19:02:41.394Z,8.23
2023-05-10T19:05:09.891Z,9.30
2023-05-10T19:07:37.738Z,8.90
2023-05-10T19:10:06.283Z,8.00
2023-05-10T19:12:34.013Z,8.50
2023-05-10T19:15:01.738Z,11.57
2023-05-10T19:17:31.351Z,9.23
2023-05-10T19:20:02.287Z,7.55
2023-05-10T19:25:01.385Z,9.90
2023-05-10T19:27:29.757Z,8.75
2023-05-10T19:29:57.778Z,9.60
2023-05-10T19:32:28.645Z,9.73
2023-05-10T19:34:57.918Z,7.47
2023-05-10T19:37:26.057Z,6.95
2023-05-10T19:39:54.138Z,6.72
2023-05-10T19:42:21.818Z,8.07
2023-05-10T19:44:49.688Z,8.32
2023-05-10T19:47:17.707Z,7.35
2023-05-10T19:49:45.584Z,7.95
2023-05-10T19:52:15.438Z,10.63
2023-05-10T19:54:44.714Z,8.27
2023-05-10T19:57:14.046Z,8.18
2023-05-10T19:59:41.860Z,7.72
2023-05-10T20:02:09.711Z,8.88
2023-05-10T20:04:37.403Z,7.05
2023-05-10T20:13:38.052Z,8.35
2023-05-10T20:16:07.313Z,10.07
2023-05-10T20:18:35.252Z,6.95
2023-05-10T20:21:03.210Z,8.35
2023-05-10T20:23:31.378Z,9.38
2023-05-10T20:25:59.777Z,10.02
2023-05-10T20:28:28.496Z,9.57
2023-05-10T20:30:58.052Z,10.23
2023-05-10T20:33:26.014Z,11.52
2023-05-10T20:35:53.918Z,11.63
2023-05-10T20:38:30.117Z,13.02
2023-05-10T20:41:01.775Z,12.15
2023-05-10T20:43:35.315Z,12.90
2023-05-10T20:46:07.049Z,14.48
2023-05-10T20:48:41.824Z,15.43
2023-05-10T20:51:15.109Z,16.15
2023-05-10T20:53:47.309Z,16.70
2023-05-10T20:56:16.774Z,18.40
2023-05-10T20:58:45.869Z,24.40
2023-05-10T21:01:18.944Z,20.92
2023-05-10T21:03:46.917Z,22.95
2023-05-10T21:06:14.841Z,24.20
2023-05-10T21:08:42.677Z,19.75
2023-05-10T21:11:10.607Z,16.70
2023-05-10T21:13:38.462Z,18.13
2023-05-10T21:16:06.768Z,18.50
2023-05-10T21:18:36.108Z,18.15
2023-05-10T21:21:04.131Z,16.20
2023-05-10T21:23:34.350Z,18.83
2023-05-10T21:26:04.801Z,16.70
2023-05-10T21:28:32.750Z,14.55
2023-05-10T21:31:00.582Z,17.75
2023-05-10T21:33:28.429Z,17.05
2023-05-10T21:35:57.871Z,13.70
2023-05-10T21:38:25.802Z,13.20
2023-05-10T21:40:53.696Z,15.15
2023-05-10T21:43:21.617Z,10.90
2023-05-10T21:45:49.525Z,17.20
2023-05-10T21:48:17.495Z,13.52
2023-05-10T21:50:47.508Z,13.48
2023-05-10T21:53:17.102Z,14.23
2023-05-10T21:55:44.934Z,14.23
2023-05-10T21:58:12.917Z,15.38
2023-05-10T22:00:41.086Z,12.35
2023-05-10T22:03:09.121Z,12.45
2023-05-10T22:05:37.182Z,12.38
2023-05-10T22:08:06.451Z,13.02
2023-05-10T22:10:35.829Z,13.88
2023-05-10T22:13:03.755Z,14.88
2023-05-10T22:15:34.180Z,17.40
2023-05-10T22:18:03.535Z,10.88
2023-05-10T22:20:31.611Z,10.80
2023-05-10T22:22:59.460Z,13.35
2023-05-10T22:25:27.387Z,11.07
2023-05-10T22:27:56.707Z,11.30
2023-05-10T22:30:24.823Z,11.35
2023-05-10T22:32:52.795Z,11.85
2023-05-10T22:35:21.018Z,13.05
2023-05-10T22:37:48.946Z,12.13
2023-05-10T22:40:17.270Z,12.57
2023-05-10T22:42:45.475Z,13.77
2023-05-10T22:45:14.734Z,16.90
2023-05-10T22:47:42.728Z,14.63
2023-05-10T22:50:11.125Z,15.95
2023-05-10T22:52:39.917Z,17.48
2023-05-10T22:55:08.510Z,17.30
2023-05-10T22:57:36.969Z,15.75
2023-05-10T23:00:06.229Z,15.57
2023-05-10T23:02:35.801Z,17.17
2023-05-10T23:05:05.372Z,14.23
2023-05-10T23:07:33.543Z,14.63
2023-05-10T23:10:01.482Z,15.07
2023-05-10T23:12:31.293Z,15.02
2023-05-10T23:14:59.617Z,15.85
2023-05-10T23:17:27.663Z,13.27
2023-05-10T23:19:57.049Z,15.25
2023-05-10T23:22:25.063Z,14.68
2023-05-10T23:24:52.911Z,29.50
2023-05-10T23:27:20.981Z,15.55
2023-05-10T23:29:52.415Z,16.08
2023-05-10T23:32:20.472Z,13.85
2023-05-10T23:34:48.362Z,16.48
2023-05-10T23:37:17.923Z,15.68
2023-05-10T23:39:46.604Z,14.38
2023-05-10T23:42:14.461Z,14.82
2023-05-10T23:44:42.287Z,17.45
2023-05-10T23:47:10.163Z,14.18
2023-05-10T23:49:38.123Z,15.95
2023-05-10T23:52:06.109Z,16.65
2023-05-10T23:54:35.555Z,15.63
2023-05-10T23:57:03.559Z,15.90
2023-05-10T23:59:31.424Z,15.90
